Flight Track Log - Related Links

Times and Time Zones

All times are in EDT time to prevent confusion due to time zone crossing. See the ASA55 flight status page for this flight to view local times or setup timezone preferences in your user account.

Time Position Orientation Groundspeed Altitude Reporting Facility
EDT Latitude Longitude Course Direction KTS MPH feet Rate Location/Type
Sat 01:24:51 PM 70.2667 -148.8833 298° West 250 288 8,100  Level Anchorage Center
Sat 01:25:51 PM 70.3000 -149.0833 296° West 270 311 11,100 2,600 Climbing Anchorage Center
Sat 01:26:51 PM 70.3333 -149.3167 293° West 330 380 13,300 2,800 Climbing Anchorage Center
Sat 01:27:51 PM 70.3667 -149.5667 292° West 350 403 16,700 3,100 Climbing Anchorage Center
Sat 01:28:51 PM 70.4167 -149.8500 298° West 370 426 19,500 3,000 Climbing Anchorage Center
Sat 01:29:00 PM 70.4564 -150.1436 292° West  Level Estimated
Sat 01:29:51 PM 70.4667 -150.1167 299° West 370 426 22,700  Level Anchorage Center
Sat 01:30:51 PM 70.5000 -150.4167 289° West 390 449 24,800 2,250 Climbing Anchorage Center
Sat 01:31:51 PM 70.5500 -150.7000 298° West 390 449 27,200 2,380 Climbing Anchorage Center
Sat 01:32:52 PM 70.6000 -151.0000 297° West 390 449 29,600 2,083 Climbing Anchorage Center
Sat 01:33:52 PM 70.6500 -151.3000 297° West 390 449 31,400 1,200 Climbing Anchorage Center
Sat 01:34:52 PM 70.6833 -151.6000 289° West 390 449 32,000 300 Climbing Anchorage Center
Sat 01:35:52 PM 70.7333 -151.8833 298° West 390 449 32,000  Level Anchorage Center
Sat 01:36:52 PM 70.7667 -152.1833 289° West 390 449 32,000  Level Anchorage Center
Sat 01:37:52 PM 70.8167 -152.4833 297° West 380 437 32,000 -800 Level Anchorage Center
Sat 01:38:52 PM 70.8500 -152.7667 290° West 390 449 30,400 -2,200 Descending Anchorage Center
Sat 01:39:52 PM 70.9000 -153.0667 297° West 390 449 27,600 -2,826 Descending Anchorage Center
Sat 01:40:53 PM 70.9333 -153.3500 290° West 380 437 24,700 -2,727 Descending Anchorage Center
Sat 01:41:53 PM 70.9667 -153.6500 289° West 370 426 22,100 -2,571 Descending Anchorage Center
Sat 01:42:52 PM 71.0000 -153.9167 291° West 350 403 19,600 -2,400 Descending Anchorage Center
Sat 01:43:53 PM 71.0333 -154.1833 291° West 340 391 17,300 -2,182 Descending Anchorage Center
Sat 01:44:53 PM 71.0667 -154.4500 291° West 320 368 15,200 -2,050 Descending Anchorage Center
Sat 01:45:53 PM 71.1000 -154.6833 294° West 300 345 13,200 -1,950 Descending Anchorage Center
Sat 01:46:53 PM 71.1333 -154.9333 293° West 310 357 11,300 -1,550 Descending Anchorage Center
Sat 01:47:53 PM 71.1667 -155.1833 293° West 300 345 10,100 -1,250 Descending Anchorage Center
Sat 01:48:53 PM 71.1833 -155.4000 284° West 260 299 8,800 -1,300 Descending Anchorage Center
Sat 01:49:53 PM 71.2167 -155.6000 297° West 240 276 7,500 -1,438 Descending Anchorage Center
Sat 01:50:54 PM 71.2333 -155.8000 285° West 240 276 5,900 -1,450 Descending Anchorage Center
Sat 01:51:53 PM 71.2500 -156.0000 285° West 230 265 4,600 -1,160 Descending Anchorage Center
Sat 01:52:53 PM 71.2667 -156.1667 287° West 220 253 3,600 -843 Descending Anchorage Center
Sat 01:53:54 PM 71.2833 -156.3333 287° West 200 230 2,900 -689 Descending Anchorage Center
Sat 01:56:00 PM 71.2847 -156.6888 285° West  Level Estimated
Sat 02:03:00 PM 71.2833 -156.7667 18° North  Level FlightAware Approximate
Sat 02:04:00 PM 71.2849 -156.7686 18° North  Level Estimated
Sat 02:05:00 PM 71.2833 -156.7667 18° North  Level FlightAware Approximate
Sat 02:06:00 PM 71.2849 -156.7686 18° North  Level Estimated

Login

Don't have an account? Register now (free) for customized features, flight alerts, and more!